createdAt,value
2023-01-29T00:00:24.395Z,57.92
2023-01-29T00:02:53.464Z,56.77
2023-01-29T00:05:27.846Z,56.43
2023-01-29T00:07:57.291Z,53.65
2023-01-29T00:10:26.999Z,52.00
2023-01-29T00:12:55.762Z,54.23
2023-01-29T00:15:26.026Z,58.00
2023-01-29T00:17:54.875Z,55.03
2023-01-29T00:20:23.860Z,57.17
2023-01-29T00:22:52.705Z,52.27
2023-01-29T00:25:21.647Z,56.10
2023-01-29T00:27:50.514Z,59.33
2023-01-29T00:30:21.068Z,57.77
2023-01-29T00:32:51.313Z,55.13
2023-01-29T00:35:20.089Z,53.10
2023-01-29T00:37:49.047Z,51.17
2023-01-29T00:40:18.680Z,54.13
2023-01-29T00:43:05.735Z,51.00
2023-01-29T00:45:36.658Z,55.10
2023-01-29T00:48:07.458Z,53.47
2023-01-29T00:50:36.239Z,50.73
2023-01-29T00:53:04.948Z,54.33
2023-01-29T00:55:34.046Z,52.67
2023-01-29T00:58:04.103Z,49.70
2023-01-29T01:00:33.093Z,51.03
2023-01-29T01:03:07.303Z,52.50
2023-01-29T01:05:39.243Z,50.57
2023-01-29T01:08:28.686Z,52.87
2023-01-29T01:11:00.889Z,54.28
2023-01-29T01:13:30.049Z,50.53
2023-01-29T01:15:59.219Z,51.87
2023-01-29T01:18:31.693Z,53.30
2023-01-29T01:21:02.052Z,52.40
2023-01-29T01:23:31.344Z,52.93
2023-01-29T01:26:00.206Z,50.33
2023-01-29T01:28:29.351Z,55.43
2023-01-29T01:30:58.455Z,52.23
2023-01-29T01:33:27.488Z,50.20
2023-01-29T01:35:56.411Z,52.67
2023-01-29T01:38:26.524Z,56.00
2023-01-29T01:40:56.649Z,51.43
2023-01-29T01:43:25.505Z,57.40
2023-01-29T01:45:54.443Z,53.87
2023-01-29T01:48:26.257Z,53.80
2023-01-29T01:51:00.852Z,53.50
2023-01-29T01:53:37.519Z,50.00
2023-01-29T01:56:10.656Z,52.97
2023-01-29T01:58:42.166Z,55.17
2023-01-29T02:01:12.722Z,53.67
2023-01-29T02:04:05.024Z,52.33
2023-01-29T02:06:52.642Z,52.03
2023-01-29T02:09:35.521Z,54.87
2023-01-29T02:12:07.074Z,49.50
2023-01-29T02:14:40.213Z,52.97
2023-01-29T02:17:12.037Z,47.97
2023-01-29T02:19:49.197Z,49.63
2023-01-29T02:22:35.000Z,49.23
2023-01-29T02:25:33.324Z,44.60
2023-01-29T02:28:30.749Z,46.83
2023-01-29T02:31:09.554Z,55.07
2023-01-29T02:33:49.431Z,52.23
2023-01-29T02:36:29.154Z,48.07
2023-01-29T02:39:05.844Z,50.70
2023-01-29T02:41:41.569Z,47.67
2023-01-29T02:44:20.244Z,50.23
2023-01-29T02:46:55.461Z,51.83
2023-01-29T02:49:32.067Z,51.47
2023-01-29T02:52:05.124Z,44.90
2023-01-29T02:54:40.569Z,51.10
2023-01-29T02:57:16.218Z,47.17
2023-01-29T02:59:51.745Z,45.90
2023-01-29T03:02:30.138Z,50.20
2023-01-29T03:05:06.501Z,43.40
2023-01-29T03:07:46.561Z,45.83
2023-01-29T03:10:33.384Z,49.80
2023-01-29T03:13:07.590Z,45.53
2023-01-29T03:15:42.507Z,49.17
2023-01-29T03:18:27.751Z,47.03
2023-01-29T03:21:25.974Z,45.93
2023-01-29T03:24:14.634Z,49.73
2023-01-29T03:27:03.079Z,46.13
2023-01-29T03:29:56.932Z,49.00
2023-01-29T03:32:36.096Z,47.30
2023-01-29T03:35:09.266Z,47.33
2023-01-29T03:37:42.572Z,51.07
2023-01-29T03:40:12.771Z,57.33
2023-01-29T03:42:53.699Z,43.10
2023-01-29T03:45:29.506Z,49.47
2023-01-29T03:48:07.786Z,53.97
2023-01-29T03:50:42.253Z,53.40
2023-01-29T03:53:23.242Z,48.90
2023-01-29T03:55:59.727Z,47.37
2023-01-29T03:58:37.715Z,51.87
2023-01-29T04:01:14.150Z,52.40
2023-01-29T04:03:51.018Z,54.33
2023-01-29T04:06:23.288Z,51.77
2023-01-29T04:09:04.647Z,51.73
2023-01-29T04:11:39.458Z,48.53
2023-01-29T04:14:09.542Z,54.17
2023-01-29T04:16:42.649Z,47.37
2023-01-29T04:19:26.073Z,54.03
2023-01-29T04:22:03.229Z,47.00
2023-01-29T04:24:33.082Z,49.87
2023-01-29T04:27:14.686Z,50.70
2023-01-29T04:29:59.193Z,46.87
2023-01-29T04:32:33.144Z,50.63
2023-01-29T04:35:17.097Z,47.67
2023-01-29T04:37:53.696Z,52.63
2023-01-29T04:40:26.692Z,57.13
2023-01-29T04:43:02.610Z,52.07
2023-01-29T04:45:41.506Z,45.43
2023-01-29T04:48:20.844Z,49.70
2023-01-29T04:50:57.953Z,50.17
2023-01-29T04:53:36.495Z,47.07
2023-01-29T04:56:12.139Z,55.90
2023-01-29T04:58:44.687Z,50.20
2023-01-29T05:01:17.964Z,44.77
2023-01-29T05:03:51.649Z,49.87
2023-01-29T05:06:23.500Z,47.70
2023-01-29T05:08:53.589Z,50.70
2023-01-29T05:11:23.705Z,48.93
2023-01-29T05:13:52.737Z,50.27
2023-01-29T05:16:25.444Z,49.27
2023-01-29T05:18:54.713Z,46.77
2023-01-29T05:21:25.602Z,50.27
2023-01-29T05:24:15.735Z,49.53
2023-01-29T05:27:03.018Z,44.43
2023-01-29T05:29:31.967Z,46.63
2023-01-29T05:32:00.958Z,45.37
2023-01-29T05:34:29.796Z,50.87
2023-01-29T05:37:00.103Z,47.70
2023-01-29T05:39:28.961Z,50.37
2023-01-29T05:41:58.830Z,46.13
2023-01-29T05:44:27.777Z,48.70
2023-01-29T05:46:56.924Z,46.53
2023-01-29T05:49:25.910Z,51.60
2023-01-29T05:51:54.681Z,45.47
2023-01-29T05:54:24.772Z,43.90
2023-01-29T05:56:53.803Z,44.43
2023-01-29T05:59:22.693Z,45.93
2023-01-29T06:01:51.701Z,46.20
2023-01-29T06:04:20.795Z,42.33
2023-01-29T06:06:49.808Z,48.30
2023-01-29T06:09:18.756Z,43.27
2023-01-29T06:11:48.979Z,44.30
2023-01-29T06:14:17.941Z,45.13
2023-01-29T06:16:46.719Z,45.30
2023-01-29T06:19:15.762Z,46.33
2023-01-29T06:21:44.592Z,47.27
2023-01-29T06:24:13.558Z,45.00
2023-01-29T06:26:42.475Z,43.13
2023-01-29T06:29:12.679Z,47.90
2023-01-29T06:31:41.972Z,45.33
2023-01-29T06:34:12.156Z,42.57
2023-01-29T06:36:41.862Z,40.97
2023-01-29T06:39:10.755Z,46.23
2023-01-29T06:41:39.670Z,49.20
2023-01-29T06:44:08.603Z,38.33
2023-01-29T06:46:38.699Z,46.30
2023-01-29T06:49:07.450Z,45.70
2023-01-29T06:51:36.213Z,45.80
2023-01-29T06:54:06.479Z,46.10
2023-01-29T06:56:35.641Z,42.47
2023-01-29T06:59:04.640Z,40.93
2023-01-29T07:01:36.422Z,43.50
2023-01-29T07:04:07.166Z,40.07
2023-01-29T07:06:36.463Z,38.73
2023-01-29T07:09:05.673Z,43.17
2023-01-29T07:11:37.817Z,40.67
2023-01-29T07:14:06.677Z,42.70
2023-01-29T07:16:35.784Z,40.50
2023-01-29T07:19:05.970Z,43.60
2023-01-29T07:21:34.755Z,43.77
2023-01-29T07:24:03.769Z,41.53
2023-01-29T07:26:32.684Z,42.53
2023-01-29T07:29:01.357Z,45.77
2023-01-29T07:31:30.373Z,45.20
2023-01-29T07:33:59.468Z,46.23
2023-01-29T07:36:29.866Z,45.87
2023-01-29T07:38:58.509Z,45.60
2023-01-29T07:41:27.152Z,45.27
2023-01-29T07:43:56.566Z,44.03
2023-01-29T07:46:25.636Z,43.23
2023-01-29T07:48:54.355Z,40.20
2023-01-29T07:51:23.349Z,41.33
2023-01-29T07:53:53.558Z,41.13
2023-01-29T07:56:22.381Z,47.00
2023-01-29T07:58:51.200Z,43.00
2023-01-29T08:01:20.591Z,43.83
2023-01-29T08:03:51.242Z,44.93
2023-01-29T08:06:20.436Z,42.17
2023-01-29T08:08:49.253Z,42.97
2023-01-29T08:11:19.418Z,43.50
2023-01-29T08:13:48.202Z,39.47
2023-01-29T08:16:16.997Z,39.57
2023-01-29T08:18:47.852Z,44.43
2023-01-29T08:21:17.182Z,40.03
2023-01-29T08:23:45.756Z,44.67
2023-01-29T08:26:14.367Z,43.07
2023-01-29T08:28:44.462Z,37.97
2023-01-29T08:31:17.229Z,43.37
2023-01-29T08:33:45.902Z,37.83
2023-01-29T08:36:14.757Z,40.83
2023-01-29T08:38:43.526Z,37.97
2023-01-29T08:41:12.248Z,39.57
2023-01-29T08:43:40.878Z,39.60
2023-01-29T08:46:10.851Z,44.87
2023-01-29T08:48:40.031Z,39.53
2023-01-29T08:51:09.031Z,42.10
2023-01-29T08:53:37.901Z,45.10
2023-01-29T08:56:07.128Z,40.30
2023-01-29T08:58:35.639Z,41.17
2023-01-29T09:01:08.507Z,41.27
2023-01-29T09:03:40.920Z,37.57
2023-01-29T09:06:11.101Z,41.20
2023-01-29T09:08:40.120Z,41.90
2023-01-29T09:11:09.125Z,45.17
2023-01-29T09:13:37.833Z,46.43
2023-01-29T09:16:07.237Z,42.17
2023-01-29T09:18:35.794Z,42.37
2023-01-29T09:21:06.534Z,42.10
2023-01-29T09:23:35.484Z,44.07
2023-01-29T09:26:04.591Z,42.87
2023-01-29T09:28:33.287Z,43.60
2023-01-29T09:31:02.974Z,43.50
2023-01-29T09:33:32.464Z,44.07
2023-01-29T09:36:05.469Z,41.27
2023-01-29T09:38:35.579Z,41.37
2023-01-29T09:41:13.542Z,40.33
2023-01-29T09:43:47.238Z,45.00
2023-01-29T09:46:21.242Z,40.80
2023-01-29T09:48:55.110Z,38.70
2023-01-29T09:51:29.723Z,40.50
2023-01-29T09:54:14.430Z,39.92
2023-01-29T09:56:44.680Z,40.20
2023-01-29T09:59:15.296Z,40.10
2023-01-29T10:01:53.699Z,40.95
2023-01-29T10:04:59.188Z,39.37
2023-01-29T10:07:44.211Z,45.33
2023-01-29T10:10:31.386Z,41.03
2023-01-29T10:13:13.044Z,39.13
2023-01-29T10:16:06.040Z,35.73
2023-01-29T10:19:01.142Z,33.42
2023-01-29T10:21:47.687Z,37.33
2023-01-29T10:24:27.041Z,38.13
2023-01-29T10:26:57.233Z,34.53
2023-01-29T10:29:28.448Z,37.87
2023-01-29T10:32:04.852Z,37.08
2023-01-29T10:34:41.922Z,40.50
2023-01-29T10:37:18.664Z,39.70
2023-01-29T10:39:47.583Z,39.60
2023-01-29T10:42:26.182Z,39.78
2023-01-29T10:45:21.683Z,40.88
2023-01-29T10:48:24.471Z,36.72
2023-01-29T10:50:59.288Z,36.80
2023-01-29T10:53:45.855Z,37.38
2023-01-29T10:56:27.537Z,38.65
2023-01-29T10:59:01.028Z,39.22
2023-01-29T11:01:29.807Z,31.38
2023-01-29T11:04:01.773Z,29.08
2023-01-29T11:06:32.392Z,33.83
2023-01-29T11:09:09.991Z,35.38
2023-01-29T11:11:45.070Z,30.88
2023-01-29T11:14:18.835Z,33.38
2023-01-29T11:16:49.685Z,34.88
2023-01-29T11:19:18.651Z,32.45
2023-01-29T11:21:57.693Z,32.38
2023-01-29T11:24:27.034Z,35.45
2023-01-29T11:26:58.255Z,29.20
2023-01-29T11:29:47.180Z,35.15
2023-01-29T11:32:26.969Z,36.35
2023-01-29T11:35:00.973Z,33.47
2023-01-29T11:37:35.861Z,32.72
2023-01-29T11:40:37.946Z,38.75
2023-01-29T11:43:22.073Z,36.55
2023-01-29T11:45:54.569Z,32.13
2023-01-29T11:48:28.439Z,30.42
2023-01-29T11:51:00.729Z,32.20
2023-01-29T11:53:41.519Z,34.08
2023-01-29T11:56:23.609Z,29.25
2023-01-29T11:58:54.010Z,30.67
2023-01-29T12:01:37.653Z,31.48
2023-01-29T12:04:21.504Z,29.85
2023-01-29T12:06:52.607Z,32.92
2023-01-29T12:09:24.051Z,32.90
2023-01-29T12:11:52.996Z,31.70
2023-01-29T12:14:29.368Z,37.70
2023-01-29T12:17:03.709Z,29.20
2023-01-29T12:19:39.360Z,34.10
2023-01-29T12:22:16.348Z,31.05
2023-01-29T12:24:53.918Z,30.98
2023-01-29T12:27:30.495Z,30.30
2023-01-29T12:30:07.255Z,31.55
2023-01-29T12:32:46.522Z,31.33
2023-01-29T12:35:22.149Z,30.17
2023-01-29T12:37:56.712Z,30.42
2023-01-29T12:40:29.681Z,30.63
2023-01-29T12:43:05.168Z,29.77
2023-01-29T12:45:36.738Z,29.92
2023-01-29T12:48:11.550Z,27.02
2023-01-29T12:50:42.043Z,28.48
2023-01-29T12:53:26.360Z,28.75
2023-01-29T12:56:00.227Z,27.25
2023-01-29T12:58:33.138Z,30.13
2023-01-29T13:01:08.140Z,29.85
2023-01-29T13:03:51.298Z,28.60
2023-01-29T13:06:23.804Z,27.52
2023-01-29T13:08:56.675Z,29.35
2023-01-29T13:11:35.139Z,27.83
2023-01-29T13:14:14.027Z,24.25
2023-01-29T13:16:48.978Z,24.90
2023-01-29T13:19:26.997Z,26.75
2023-01-29T13:21:58.624Z,23.08
2023-01-29T13:24:34.958Z,26.38
2023-01-29T13:27:04.863Z,24.25
2023-01-29T13:29:34.399Z,21.05
2023-01-29T13:32:06.006Z,21.30
2023-01-29T13:34:39.238Z,24.45
2023-01-29T13:37:13.456Z,19.65
2023-01-29T13:39:49.251Z,22.63
2023-01-29T13:42:21.511Z,19.33
2023-01-29T13:44:51.845Z,19.95
2023-01-29T13:47:27.594Z,19.73
2023-01-29T13:50:00.785Z,20.45
2023-01-29T13:52:36.548Z,18.50
2023-01-29T13:55:08.232Z,18.05
2023-01-29T13:57:49.845Z,18.65
2023-01-29T14:00:59.257Z,19.65
2023-01-29T14:04:04.504Z,19.30
2023-01-29T14:06:42.544Z,20.38
2023-01-29T14:09:34.217Z,18.73
2023-01-29T14:12:03.995Z,19.50
2023-01-29T14:14:52.490Z,21.08
2023-01-29T14:17:22.881Z,23.02
2023-01-29T14:19:53.345Z,23.70
2023-01-29T14:22:29.074Z,22.92
2023-01-29T14:25:02.987Z,20.95
2023-01-29T14:27:32.510Z,23.08
2023-01-29T14:30:03.386Z,22.58
2023-01-29T14:32:32.434Z,21.08
2023-01-29T14:35:03.554Z,23.27
2023-01-29T14:37:37.158Z,22.17
2023-01-29T14:40:20.848Z,19.90
2023-01-29T14:42:58.759Z,21.27
2023-01-29T14:45:29.412Z,23.23
2023-01-29T14:48:18.239Z,21.10
2023-01-29T14:51:09.527Z,19.60
2023-01-29T14:53:54.189Z,18.92
2023-01-29T14:56:29.266Z,17.35
2023-01-29T14:59:05.677Z,16.38
2023-01-29T15:01:39.046Z,17.73
2023-01-29T15:04:19.249Z,18.80
2023-01-29T15:06:51.300Z,15.60
2023-01-29T15:09:36.823Z,14.18
2023-01-29T15:12:15.336Z,11.63
2023-01-29T15:14:51.073Z,12.52
2023-01-29T15:17:26.604Z,14.60
2023-01-29T15:19:57.005Z,11.13
2023-01-29T15:22:29.001Z,12.77
2023-01-29T15:25:07.681Z,22.30
2023-01-29T15:27:36.760Z,14.43
2023-01-29T15:30:09.056Z,13.88
2023-01-29T15:32:41.445Z,14.93
2023-01-29T15:35:12.464Z,15.73
2023-01-29T15:37:41.409Z,15.07
2023-01-29T15:40:18.263Z,21.15
2023-01-29T15:42:48.985Z,18.13
2023-01-29T15:45:30.100Z,17.70
2023-01-29T15:48:04.285Z,16.83
2023-01-29T15:50:35.657Z,17.77
2023-01-29T15:53:08.437Z,18.77
2023-01-29T15:55:38.344Z,18.90
2023-01-29T15:58:08.474Z,22.42
2023-01-29T16:01:39.982Z,19.40
2023-01-29T16:04:15.004Z,20.48
2023-01-29T16:06:44.811Z,24.40
2023-01-29T16:09:19.071Z,22.13
2023-01-29T16:11:50.511Z,20.67
2023-01-29T16:14:25.351Z,20.38
2023-01-29T16:16:54.962Z,21.35
2023-01-29T16:19:25.771Z,19.13
2023-01-29T16:21:59.582Z,20.48
2023-01-29T16:24:29.532Z,22.45
2023-01-29T16:27:03.257Z,25.13
2023-01-29T16:29:33.788Z,22.42
2023-01-29T16:32:05.149Z,23.30
2023-01-29T16:34:36.690Z,22.45
2023-01-29T16:37:07.701Z,22.45
2023-01-29T16:39:39.336Z,24.50
2023-01-29T16:42:24.558Z,21.08
2023-01-29T16:44:58.543Z,22.85
2023-01-29T16:47:30.644Z,22.48
2023-01-29T16:50:00.747Z,22.30
2023-01-29T16:52:31.763Z,24.95
2023-01-29T16:55:02.871Z,23.48
2023-01-29T16:57:34.588Z,29.83
2023-01-29T17:00:07.791Z,22.02
2023-01-29T17:02:39.514Z,22.73
2023-01-29T17:05:10.686Z,22.63
2023-01-29T17:07:39.585Z,23.75
2023-01-29T17:10:09.640Z,24.65
2023-01-29T17:12:40.251Z,25.02
2023-01-29T17:15:35.308Z,20.75
2023-01-29T17:18:04.988Z,21.02
2023-01-29T17:20:34.063Z,21.67
2023-01-29T17:23:02.980Z,20.85
2023-01-29T17:25:31.777Z,22.48
2023-01-29T17:28:03.663Z,24.52
2023-01-29T17:30:34.834Z,22.63
2023-01-29T17:33:10.576Z,20.65
2023-01-29T17:35:39.315Z,20.83
2023-01-29T17:38:24.968Z,25.40
2023-01-29T17:40:57.556Z,22.80
2023-01-29T17:43:27.630Z,23.52
2023-01-29T17:45:56.355Z,20.40
2023-01-29T17:48:26.916Z,21.27
2023-01-29T17:50:57.630Z,22.63
2023-01-29T17:53:30.627Z,21.02
2023-01-29T17:56:05.259Z,20.15
2023-01-29T17:58:35.439Z,18.75
2023-01-29T18:01:04.289Z,21.98
2023-01-29T18:03:33.010Z,17.05
2023-01-29T18:06:01.979Z,19.48
2023-01-29T18:08:33.781Z,20.13
2023-01-29T18:11:03.079Z,20.55
2023-01-29T18:13:32.503Z,19.27
2023-01-29T18:16:02.842Z,20.52
2023-01-29T18:18:32.026Z,21.13
2023-01-29T18:21:00.897Z,20.77
2023-01-29T18:23:31.455Z,22.58
2023-01-29T18:26:00.391Z,21.90
2023-01-29T18:28:29.812Z,23.40
2023-01-29T18:30:58.963Z,22.67
2023-01-29T18:33:29.136Z,25.00
2023-01-29T18:35:58.501Z,27.58
2023-01-29T18:38:27.527Z,26.55
2023-01-29T18:41:04.188Z,25.80
2023-01-29T18:43:33.249Z,29.45
2023-01-29T18:46:02.069Z,28.48
2023-01-29T18:48:32.174Z,37.58
2023-01-29T18:51:01.062Z,28.80
2023-01-29T18:53:29.984Z,30.83
2023-01-29T18:56:00.306Z,29.13
2023-01-29T18:58:34.884Z,29.38
2023-01-29T19:01:09.565Z,29.48
2023-01-29T19:03:40.477Z,33.13
2023-01-29T19:06:11.037Z,28.23
2023-01-29T19:08:40.482Z,28.02
2023-01-29T19:11:09.730Z,28.20
2023-01-29T19:13:39.244Z,30.65
2023-01-29T19:16:09.400Z,28.83
2023-01-29T19:18:41.007Z,28.55
2023-01-29T19:21:11.821Z,30.90
2023-01-29T19:23:41.464Z,31.23
2023-01-29T19:26:13.386Z,29.35
2023-01-29T19:28:42.806Z,28.40
2023-01-29T19:31:11.818Z,24.40
2023-01-29T19:33:42.013Z,29.17
2023-01-29T19:36:12.767Z,27.42
2023-01-29T19:38:42.955Z,25.17
2023-01-29T19:41:12.109Z,25.83
2023-01-29T19:43:42.260Z,24.30
2023-01-29T19:46:11.627Z,25.08
2023-01-29T19:48:42.234Z,25.08
2023-01-29T19:51:13.165Z,25.77
2023-01-29T19:53:46.172Z,23.10
2023-01-29T19:56:16.955Z,22.75
2023-01-29T19:58:45.884Z,20.73
2023-01-29T20:01:17.069Z,23.35
2023-01-29T20:03:51.000Z,21.63
2023-01-29T20:06:23.981Z,20.63
2023-01-29T20:08:53.331Z,24.92
2023-01-29T20:11:24.829Z,25.55
2023-01-29T20:13:54.424Z,24.05
2023-01-29T20:16:24.178Z,20.33
2023-01-29T20:18:54.261Z,21.88
2023-01-29T20:21:23.278Z,26.35
2023-01-29T20:23:53.229Z,21.55
2023-01-29T20:26:22.793Z,23.58
2023-01-29T20:28:51.925Z,25.13
2023-01-29T20:31:21.117Z,21.33
2023-01-29T20:33:52.263Z,23.42
2023-01-29T20:36:22.593Z,23.85
2023-01-29T20:38:51.319Z,20.20
2023-01-29T20:41:21.260Z,21.48
2023-01-29T20:43:50.995Z,22.65
2023-01-29T20:46:19.945Z,24.45
2023-01-29T20:48:49.485Z,22.73
2023-01-29T20:51:18.759Z,24.58
2023-01-29T20:53:49.123Z,22.92
2023-01-29T20:56:18.887Z,25.15
2023-01-29T20:59:04.710Z,24.02
2023-01-29T21:01:33.430Z,26.75
2023-01-29T21:04:02.190Z,24.17
2023-01-29T21:06:31.234Z,21.92
2023-01-29T21:09:01.385Z,26.70
2023-01-29T21:11:30.218Z,23.65
2023-01-29T21:13:59.263Z,23.15
2023-01-29T21:16:28.107Z,24.00
2023-01-29T21:18:57.868Z,25.05
2023-01-29T21:21:27.058Z,23.48
2023-01-29T21:23:56.056Z,24.17
2023-01-29T21:26:26.554Z,21.38
2023-01-29T21:28:55.422Z,22.63
2023-01-29T21:31:24.253Z,20.98
2023-01-29T21:33:53.225Z,23.05
2023-01-29T21:36:22.234Z,25.50
2023-01-29T21:38:51.175Z,22.33
2023-01-29T21:41:39.945Z,22.73
2023-01-29T21:44:09.293Z,20.80
2023-01-29T21:46:38.237Z,20.98
2023-01-29T21:49:07.312Z,21.92
2023-01-29T21:51:36.146Z,22.80
2023-01-29T21:54:05.243Z,20.83
2023-01-29T21:56:34.291Z,23.45
2023-01-29T21:59:03.052Z,20.67
2023-01-29T22:01:37.657Z,22.13
2023-01-29T22:04:09.715Z,18.45
2023-01-29T22:06:38.599Z,22.70
2023-01-29T22:09:07.586Z,22.48
2023-01-29T22:11:36.856Z,19.90
2023-01-29T22:14:05.741Z,21.20
2023-01-29T22:16:36.064Z,20.77
2023-01-29T22:19:04.924Z,17.90
2023-01-29T22:21:35.871Z,17.13
2023-01-29T22:24:05.496Z,20.65
2023-01-29T22:26:34.621Z,21.30
2023-01-29T22:29:03.769Z,18.58
2023-01-29T22:31:32.637Z,19.65
2023-01-29T22:34:03.469Z,17.02
2023-01-29T22:36:32.447Z,17.42
2023-01-29T22:39:01.508Z,18.20
2023-01-29T22:41:30.872Z,17.50
2023-01-29T22:43:59.727Z,20.70
2023-01-29T22:46:28.621Z,18.45
2023-01-29T22:48:57.657Z,16.48
2023-01-29T22:51:27.897Z,13.43
2023-01-29T22:53:57.875Z,12.85
2023-01-29T22:56:29.734Z,14.48
2023-01-29T22:59:00.682Z,13.23
2023-01-29T23:01:31.364Z,12.77
2023-01-29T23:04:00.514Z,13.95
2023-01-29T23:06:30.737Z,13.73
2023-01-29T23:08:59.454Z,14.65
2023-01-29T23:11:28.239Z,12.77
2023-01-29T23:13:57.191Z,13.50
2023-01-29T23:16:28.275Z,15.30
2023-01-29T23:18:57.849Z,14.02
2023-01-29T23:21:27.759Z,13.32
2023-01-29T23:23:59.623Z,14.68
2023-01-29T23:26:46.956Z,12.90
2023-01-29T23:29:16.236Z,17.90
2023-01-29T23:31:45.295Z,13.10
2023-01-29T23:34:15.188Z,13.15
2023-01-29T23:36:44.507Z,12.85
2023-01-29T23:39:14.713Z,12.73
2023-01-29T23:41:43.784Z,12.50
2023-01-29T23:44:12.623Z,12.90
2023-01-29T23:46:41.743Z,14.25
2023-01-29T23:49:10.693Z,11.60
2023-01-29T23:51:39.666Z,10.23
2023-01-29T23:54:08.733Z,12.52
2023-01-29T23:56:38.926Z,10.27
2023-01-29T23:59:07.974Z,10.70
